Time;durP1;ratioP1;P1;durP2;ratioP2;P2;SDS_P1;SDS_P2;PMS_P1;PMS_P2;Temp;Humidity;BMP_temperature;BMP_pressure;BME280_temperature;BME280_humidity;BME280_pressure;Samples;Min_cycle;Max_cycle;Signal;HPM_P1;HPM_P2
2022/12/18 00:02:01;;;;;;;;;;;-4.30;94.30;;;;;;5020484;28;1168;-70
2022/12/18 00:04:29;;;;;;;;;;;-4.30;94.30;;;;;;5029936;28;1520;-70
2022/12/18 00:06:56;;;;;;;;;;;-4.30;94.30;;;;;;5024673;28;1085;-70
2022/12/18 00:09:25;;;;;;;;;;;-4.30;94.30;;;;;;5021049;28;1625;-70
2022/12/18 00:12:06;;;;;;;;;;;-4.30;94.30;;;;;;5029956;28;1080;-70
2022/12/18 00:14:45;;;;;;;;;;;-4.30;94.10;;;;;;5025216;28;1365;-70
2022/12/18 00:17:12;;;;;;;;;;;-4.40;94.10;;;;;;5021792;28;1995;-70
2022/12/18 00:19:40;;;;;;;;;;;-4.40;94.10;;;;;;5018148;28;1193;-72
2022/12/18 00:22:08;;;;;;;;;;;-4.40;94.00;;;;;;5014132;28;1254;-71
2022/12/18 00:24:36;;;;;;;;;;;-4.40;94.10;;;;;;5018328;28;1355;-72
2022/12/18 00:27:04;;;;;;;;;;;-4.40;94.10;;;;;;5028189;28;1092;-70
2022/12/18 00:29:32;;;;;;;;;;;-4.50;94.10;;;;;;5026994;28;1073;-71
2022/12/18 00:31:59;;;;;;;;;;;-4.50;94.10;;;;;;5018819;28;1240;-70
2022/12/18 00:34:27;;;;;;;;;;;-4.40;94.10;;;;;;5031228;28;1429;-69
2022/12/18 00:36:55;;;;;;;;;;;-4.40;94.10;;;;;;5027731;28;1993;-71
2022/12/18 00:39:22;;;;;;;;;;;-4.50;94.10;;;;;;5024992;28;1057;-72
2022/12/18 00:44:37;;;;;;;;;;;-4.50;94.00;;;;;;5024118;28;1369;-71
2022/12/18 00:47:04;;;;;;;;;;;-4.50;94.00;;;;;;5021455;28;1053;-69
2022/12/18 00:49:32;;;;;;;;;;;-4.50;93.90;;;;;;5024267;28;1009;-72
2022/12/18 00:52:00;;;;;;;;;;;-4.50;93.80;;;;;;5030435;28;1052;-71
2022/12/18 00:54:27;;;;;;;;;;;-4.50;93.90;;;;;;5024719;28;1288;-65
2022/12/18 00:56:56;;;;;;;;;;;-4.60;93.80;;;;;;5021275;28;1056;-64
2022/12/18 00:59:24;;;;;;;;;;;-4.60;93.90;;;;;;5016894;28;1973;-67
2022/12/18 01:01:52;;;;;;;;;;;-4.70;94.00;;;;;;5018431;28;1009;-66
2022/12/18 01:04:20;;;;;;;;;;;-4.70;94.10;;;;;;5023728;28;1290;-66
2022/12/18 01:06:47;;;;;;;;;;;-4.80;94.10;;;;;;5019189;28;1041;-67
2022/12/18 01:09:15;;;;;;;;;;;-4.80;94.50;;;;;;5022571;28;2236;-70
2022/12/18 01:11:42;;;;;;;;;;;-4.80;94.20;;;;;;5023621;28;1624;-70
2022/12/18 01:14:11;;;;;;;;;;;-4.70;94.00;;;;;;5022206;28;1308;-72
2022/12/18 01:16:39;;;;;;;;;;;-4.70;93.90;;;;;;5024252;28;1767;-72
2022/12/18 01:19:07;;;;;;;;;;;-4.70;93.80;;;;;;5018573;28;1992;-72
2022/12/18 01:21:34;;;;;;;;;;;-4.70;93.60;;;;;;5033339;28;934;-70
2022/12/18 01:24:02;;;;;;;;;;;-4.70;93.60;;;;;;5016646;28;1284;-68
2022/12/18 01:26:30;;;;;;;;;;;-4.70;93.50;;;;;;5022708;28;1465;-69
2022/12/18 01:28:57;;;;;;;;;;;-4.70;93.50;;;;;;5018474;28;1129;-70
2022/12/18 01:31:28;;;;;;;;;;;-4.70;93.40;;;;;;5017798;28;997;-71
2022/12/18 01:33:56;;;;;;;;;;;-4.60;93.60;;;;;;5021059;28;1303;-71
2022/12/18 01:36:25;;;;;;;;;;;-4.80;93.50;;;;;;5021249;28;1059;-72
2022/12/18 01:38:52;;;;;;;;;;;-4.80;93.60;;;;;;5016180;28;1914;-71
2022/12/18 01:41:22;;;;;;;;;;;-4.90;93.50;;;;;;5023361;28;1171;-71
2022/12/18 01:43:51;;;;;;;;;;;-4.90;93.60;;;;;;5023352;28;1222;-71
2022/12/18 01:46:20;;;;;;;;;;;-4.80;93.70;;;;;;5021822;28;1014;-70
2022/12/18 01:48:50;;;;;;;;;;;-4.80;93.80;;;;;;5023488;28;1134;-71
2022/12/18 01:51:18;;;;;;;;;;;-4.80;93.70;;;;;;5019494;28;1077;-72
2022/12/18 01:53:47;;;;;;;;;;;-4.90;93.70;;;;;;5024738;28;1268;-71
2022/12/18 01:56:16;;;;;;;;;;;-4.80;93.60;;;;;;5016587;28;1029;-72
2022/12/18 01:58:49;;;;;;;;;;;-4.80;93.60;;;;;;5019275;28;1895;-71
2022/12/18 02:01:17;;;;;;;;;;;-4.90;93.60;;;;;;5025066;28;1089;-70
2022/12/18 02:03:45;;;;;;;;;;;-4.80;93.70;;;;;;5016517;28;1288;-71
2022/12/18 02:06:17;;;;;;;;;;;-4.80;93.50;;;;;;5018926;28;1568;-70
2022/12/18 02:08:49;;;;;;;;;;;-4.80;93.60;;;;;;5023457;28;1057;-70
2022/12/18 02:11:20;;;;;;;;;;;-4.80;93.40;;;;;;5023241;28;1072;-70
2022/12/18 02:20:02;;;;;;;;;;;-4.90;93.20;;;;;;5050446;28;1877;-91
2022/12/18 02:22:37;;;;;;;;;;;-4.90;93.20;;;;;;5048972;28;1550;-92
2022/12/18 02:25:12;;;;;;;;;;;-4.90;93.30;;;;;;5051377;28;1472;-92
2022/12/18 02:27:45;;;;;;;;;;;-4.80;93.40;;;;;;5051371;28;1559;-92
2022/12/18 02:30:14;;;;;;;;;;;-4.90;93.00;;;;;;5048227;28;1455;-93
2022/12/18 02:32:44;;;;;;;;;;;-4.90;93.00;;;;;;5046524;28;1563;-91
2022/12/18 02:35:14;;;;;;;;;;;-4.90;93.30;;;;;;5045491;28;1566;-93
2022/12/18 02:37:44;;;;;;;;;;;-5.00;92.70;;;;;;5050333;28;1780;-90
2022/12/18 02:40:21;;;;;;;;;;;-4.70;92.90;;;;;;5042089;28;1906;-91
2022/12/18 02:42:51;;;;;;;;;;;-4.90;92.90;;;;;;5043092;28;1585;-91
2022/12/18 02:45:19;;;;;;;;;;;-4.90;92.90;;;;;;5042379;28;1558;-90
2022/12/18 02:47:49;;;;;;;;;;;-4.70;92.40;;;;;;5053199;28;1668;-90
2022/12/18 02:50:19;;;;;;;;;;;-4.90;92.90;;;;;;5050169;28;1552;-89
2022/12/18 02:52:52;;;;;;;;;;;-5.00;93.00;;;;;;5041043;28;1622;-91
2022/12/18 02:55:25;;;;;;;;;;;-5.10;93.10;;;;;;5041734;28;1389;-90
2022/12/18 02:57:56;;;;;;;;;;;-5.10;93.10;;;;;;5040735;28;1626;-91
2022/12/18 03:00:28;;;;;;;;;;;-5.10;93.10;;;;;;5040824;28;1879;-91
2022/12/18 03:03:02;;;;;;;;;;;-4.80;92.80;;;;;;5040958;28;1546;-91
2022/12/18 03:05:32;;;;;;;;;;;-5.00;92.70;;;;;;5040905;28;1748;-89
2022/12/18 03:08:02;;;;;;;;;;;-5.00;92.70;;;;;;5041949;28;1517;-90
2022/12/18 03:10:38;;;;;;;;;;;-4.90;92.40;;;;;;5043287;28;1636;-92
2022/12/18 03:13:14;;;;;;;;;;;-5.00;92.70;;;;;;5042164;28;1420;-93
2022/12/18 03:22:25;;;;;;;;;;;-5.00;93.00;;;;;;5035820;28;1679;-91
2022/12/18 03:24:56;;;;;;;;;;;-5.10;92.40;;;;;;5037679;28;1550;-91
2022/12/18 03:27:38;;;;;;;;;;;-4.90;92.60;;;;;;5039358;28;1732;-92
2022/12/18 03:33:09;;;;;;;;;;;-5.20;93.10;;;;;;4991593;28;1936;-70
2022/12/18 03:35:38;;;;;;;;;;;-5.10;92.90;;;;;;4992872;28;1077;-68
2022/12/18 03:38:06;;;;;;;;;;;-5.20;92.80;;;;;;4991304;28;1011;-69
2022/12/18 03:40:40;;;;;;;;;;;-5.30;92.90;;;;;;4994245;28;1993;-66
2022/12/18 03:43:09;;;;;;;;;;;-5.20;92.90;;;;;;4995136;28;1315;-69
2022/12/18 03:45:40;;;;;;;;;;;-5.10;92.70;;;;;;4993058;28;1190;-69
2022/12/18 03:48:09;;;;;;;;;;;-5.10;92.60;;;;;;4992349;28;1173;-69
2022/12/18 03:50:40;;;;;;;;;;;-5.10;92.60;;;;;;4993600;28;1064;-69
2022/12/18 03:53:13;;;;;;;;;;;-5.10;92.50;;;;;;4992985;28;1292;-69
2022/12/18 03:55:42;;;;;;;;;;;-5.10;92.50;;;;;;4993006;28;1061;-66
2022/12/18 03:58:11;;;;;;;;;;;-5.20;92.40;;;;;;4993951;28;1149;-67
2022/12/18 04:00:40;;;;;;;;;;;-5.20;92.40;;;;;;4996510;28;1907;-67
2022/12/18 04:03:09;;;;;;;;;;;-5.20;92.60;;;;;;4997160;28;1745;-69
2022/12/18 04:05:37;;;;;;;;;;;-5.30;92.70;;;;;;4996757;28;1106;-66
2022/12/18 04:08:05;;;;;;;;;;;-5.30;92.70;;;;;;4997074;28;1105;-66
2022/12/18 04:10:33;;;;;;;;;;;-5.40;92.70;;;;;;4996066;28;1157;-68
2022/12/18 04:13:00;;;;;;;;;;;-5.30;92.80;;;;;;4997112;28;2052;-66
2022/12/18 04:15:28;;;;;;;;;;;-5.20;92.80;;;;;;4997643;28;1235;-66
2022/12/18 04:17:57;;;;;;;;;;;-5.40;92.80;;;;;;4999853;28;1082;-68
2022/12/18 04:20:24;;;;;;;;;;;-5.40;92.60;;;;;;4997478;28;1989;-70
2022/12/18 04:22:52;;;;;;;;;;;-5.40;92.50;;;;;;4996650;28;1401;-69
2022/12/18 04:25:20;;;;;;;;;;;-5.50;93.20;;;;;;4995617;28;1132;-70
2022/12/18 04:27:47;;;;;;;;;;;-5.50;92.90;;;;;;4996724;28;1085;-69
2022/12/18 04:30:15;;;;;;;;;;;-5.40;92.80;;;;;;4996962;28;1020;-68
2022/12/18 04:32:42;;;;;;;;;;;-5.50;92.80;;;;;;4996784;28;1029;-69
2022/12/18 04:35:18;;;;;;;;;;;-5.60;92.80;;;;;;4996748;28;1042;-69
2022/12/18 04:37:46;;;;;;;;;;;-5.50;92.60;;;;;;4995390;28;1278;-69
2022/12/18 04:40:13;;;;;;;;;;;-5.50;92.70;;;;;;4996260;28;1997;-68
2022/12/18 04:42:41;;;;;;;;;;;-5.50;92.70;;;;;;4995852;28;1194;-69
2022/12/18 04:45:09;;;;;;;;;;;-5.50;92.40;;;;;;4996788;28;985;-70
2022/12/18 04:47:37;;;;;;;;;;;-5.40;92.50;;;;;;4995632;28;1009;-71
2022/12/18 04:50:05;;;;;;;;;;;-5.50;92.40;;;;;;4996572;28;1054;-70
2022/12/18 04:52:34;;;;;;;;;;;-5.50;92.60;;;;;;4996754;28;902;-70
2022/12/18 04:55:02;;;;;;;;;;;-5.40;92.50;;;;;;4996583;28;1315;-68
2022/12/18 04:57:29;;;;;;;;;;;-5.60;92.50;;;;;;4994576;28;1061;-68
2022/12/18 04:59:57;;;;;;;;;;;-5.60;92.60;;;;;;4996321;28;1911;-70
2022/12/18 05:02:25;;;;;;;;;;;-5.60;92.40;;;;;;4996474;28;1267;-70
2022/12/18 05:04:53;;;;;;;;;;;-5.50;92.50;;;;;;4995573;28;1721;-69
2022/12/18 05:07:21;;;;;;;;;;;-5.40;92.50;;;;;;4994712;28;1021;-70
2022/12/18 05:09:49;;;;;;;;;;;-5.60;92.60;;;;;;4995151;28;1473;-70
2022/12/18 05:12:17;;;;;;;;;;;-5.70;92.50;;;;;;4995992;28;2033;-69
2022/12/18 05:14:44;;;;;;;;;;;-5.70;92.70;;;;;;4995820;28;1312;-70
2022/12/18 05:17:12;;;;;;;;;;;-5.60;92.80;;;;;;4995591;28;1037;-70
2022/12/18 05:19:40;;;;;;;;;;;-5.60;92.60;;;;;;4995849;28;1879;-71
2022/12/18 05:22:07;;;;;;;;;;;-5.60;92.60;;;;;;4995750;28;1006;-69
2022/12/18 05:24:35;;;;;;;;;;;-5.60;92.60;;;;;;4995506;28;1286;-70
2022/12/18 05:27:04;;;;;;;;;;;-5.60;92.50;;;;;;4995527;28;1093;-69
2022/12/18 05:29:31;;;;;;;;;;;-5.60;92.40;;;;;;4997893;28;1213;-70
2022/12/18 05:31:59;;;;;;;;;;;-5.50;92.40;;;;;;4995544;28;1518;-70
2022/12/18 05:34:27;;;;;;;;;;;-5.60;92.30;;;;;;4995326;28;1241;-69
2022/12/18 05:36:54;;;;;;;;;;;-5.60;92.40;;;;;;4996370;28;1599;-69
2022/12/18 05:39:22;;;;;;;;;;;-5.60;92.40;;;;;;4995887;28;1725;-70
2022/12/18 05:41:49;;;;;;;;;;;-5.70;92.40;;;;;;4995061;28;1977;-70
2022/12/18 05:44:18;;;;;;;;;;;-5.70;92.50;;;;;;4994932;28;1247;-70
2022/12/18 05:46:46;;;;;;;;;;;-5.70;92.50;;;;;;4995189;28;1116;-71
2022/12/18 05:49:13;;;;;;;;;;;-5.70;92.40;;;;;;4994807;28;998;-69
2022/12/18 05:51:41;;;;;;;;;;;-5.70;92.40;;;;;;4994763;28;1185;-70
2022/12/18 05:54:09;;;;;;;;;;;-5.80;92.40;;;;;;4995649;28;1359;-70
2022/12/18 05:56:37;;;;;;;;;;;-5.70;92.20;;;;;;4995355;28;1540;-69
2022/12/18 05:59:05;;;;;;;;;;;-5.80;92.30;;;;;;4995471;28;1078;-69
2022/12/18 06:01:34;;;;;;;;;;;-5.80;92.40;;;;;;4995218;28;1911;-68
2022/12/18 06:04:01;;;;;;;;;;;-5.80;92.40;;;;;;4994730;28;1252;-69
2022/12/18 06:06:29;;;;;;;;;;;-5.70;92.20;;;;;;4995195;28;1014;-68
2022/12/18 06:08:57;;;;;;;;;;;-5.80;92.20;;;;;;4994794;28;1364;-68
2022/12/18 06:11:25;;;;;;;;;;;-5.80;92.40;;;;;;4994806;28;995;-69
2022/12/18 06:13:53;;;;;;;;;;;-5.80;92.30;;;;;;4994165;28;1364;-69
2022/12/18 06:16:25;;;;;;;;;;;-5.80;92.30;;;;;;4993826;28;1271;-69
2022/12/18 06:18:56;;;;;;;;;;;-5.70;92.30;;;;;;4993853;28;1571;-69
2022/12/18 06:21:24;;;;;;;;;;;-5.80;92.30;;;;;;4994617;28;1910;-70
2022/12/18 06:23:51;;;;;;;;;;;-5.70;92.20;;;;;;4993143;28;1279;-69
2022/12/18 06:26:19;;;;;;;;;;;-5.70;92.20;;;;;;4994653;28;1093;-68
2022/12/18 06:28:54;;;;;;;;;;;-5.80;92.30;;;;;;4994502;28;1038;-66
2022/12/18 06:31:21;;;;;;;;;;;-5.80;92.20;;;;;;4994156;28;1539;-69
2022/12/18 06:33:49;;;;;;;;;;;-5.70;92.20;;;;;;4994373;28;1390;-70
2022/12/18 06:36:19;;;;;;;;;;;-5.70;92.10;;;;;;4997488;28;1156;-68
2022/12/18 06:38:47;;;;;;;;;;;-5.80;92.20;;;;;;4994615;28;1512;-71
2022/12/18 06:41:15;;;;;;;;;;;-5.80;92.20;;;;;;4993641;28;1993;-71
2022/12/18 06:43:43;;;;;;;;;;;-5.80;92.30;;;;;;4992098;28;1571;-71
2022/12/18 06:46:11;;;;;;;;;;;-5.80;92.30;;;;;;4992037;28;1547;-71
2022/12/18 06:48:40;;;;;;;;;;;-5.90;92.40;;;;;;4992974;28;1515;-71
2022/12/18 06:51:07;;;;;;;;;;;-5.90;92.40;;;;;;4992674;28;1572;-70
2022/12/18 06:53:36;;;;;;;;;;;-5.90;92.30;;;;;;4992986;28;1546;-70
2022/12/18 06:56:06;;;;;;;;;;;-5.90;92.40;;;;;;4993475;28;1286;-63
2022/12/18 06:58:37;;;;;;;;;;;-5.90;92.40;;;;;;4994033;28;1157;-71
2022/12/18 07:01:06;;;;;;;;;;;-6.10;92.80;;;;;;4993361;28;1898;-68
2022/12/18 07:03:34;;;;;;;;;;;-6.20;93.20;;;;;;4992984;28;1753;-68
2022/12/18 07:06:02;;;;;;;;;;;-6.20;93.50;;;;;;4993220;28;1216;-69
2022/12/18 07:08:30;;;;;;;;;;;-6.10;93.30;;;;;;4992518;28;1642;-68
2022/12/18 07:10:59;;;;;;;;;;;-6.30;93.50;;;;;;4992360;28;1223;-69
2022/12/18 07:13:26;;;;;;;;;;;-6.20;93.50;;;;;;4992574;28;1462;-68
2022/12/18 07:15:54;;;;;;;;;;;-6.10;93.30;;;;;;4992014;28;1323;-69
2022/12/18 07:18:22;;;;;;;;;;;-6.00;93.30;;;;;;4992792;28;1208;-69
2022/12/18 07:20:49;;;;;;;;;;;-6.10;93.30;;;;;;4992463;28;1915;-69
2022/12/18 07:23:17;;;;;;;;;;;-6.20;93.50;;;;;;4993246;28;1382;-68
2022/12/18 07:25:45;;;;;;;;;;;-6.00;93.50;;;;;;4993090;28;1296;-70
2022/12/18 07:28:14;;;;;;;;;;;-6.20;93.30;;;;;;4992811;28;1493;-69
2022/12/18 07:30:44;;;;;;;;;;;-6.10;93.20;;;;;;4993724;28;1171;-68
2022/12/18 07:33:11;;;;;;;;;;;-6.00;92.90;;;;;;4995084;28;1424;-69
2022/12/18 07:35:39;;;;;;;;;;;-6.00;92.80;;;;;;4993061;28;1186;-69
2022/12/18 07:38:06;;;;;;;;;;;-6.00;92.90;;;;;;4992642;28;1628;-67
2022/12/18 07:40:37;;;;;;;;;;;-6.10;93.10;;;;;;4992726;28;2066;-66
2022/12/18 07:43:05;;;;;;;;;;;-6.30;93.70;;;;;;4993229;28;1378;-67
2022/12/18 07:45:34;;;;;;;;;;;-6.20;94.00;;;;;;4992844;28;1097;-68
2022/12/18 07:48:02;;;;;;;;;;;-6.10;93.40;;;;;;4992737;28;1833;-69
2022/12/18 07:50:29;;;;;;;;;;;-6.00;93.10;;;;;;4992127;28;1085;-70
2022/12/18 07:52:57;;;;;;;;;;;-5.90;92.90;;;;;;4993193;28;1283;-71
2022/12/18 07:55:25;;;;;;;;;;;-6.00;92.70;;;;;;4992940;28;1299;-70
2022/12/18 07:57:53;;;;;;;;;;;-5.90;92.70;;;;;;4993142;28;1463;-69
2022/12/18 08:00:29;;;;;;;;;;;-5.80;92.70;;;;;;4992937;28;1655;-69
2022/12/18 08:02:59;;;;;;;;;;;-6.00;92.90;;;;;;4992319;28;1910;-68
2022/12/18 08:05:27;;;;;;;;;;;-6.00;92.90;;;;;;4992929;28;1093;-69
2022/12/18 08:07:55;;;;;;;;;;;-5.90;92.90;;;;;;4992486;28;1128;-68
2022/12/18 08:10:23;;;;;;;;;;;-5.90;93.00;;;;;;4993403;28;1101;-69
2022/12/18 08:12:51;;;;;;;;;;;-5.90;93.10;;;;;;4992825;28;1254;-69
2022/12/18 08:15:19;;;;;;;;;;;-5.90;93.30;;;;;;4992761;28;1191;-69
2022/12/18 08:17:46;;;;;;;;;;;-5.80;93.00;;;;;;4992300;28;1152;-70
2022/12/18 08:20:16;;;;;;;;;;;-5.80;93.10;;;;;;4991485;28;1503;-70
2022/12/18 08:22:44;;;;;;;;;;;-5.80;92.80;;;;;;4992725;28;1907;-70
2022/12/18 08:25:12;;;;;;;;;;;-5.70;92.70;;;;;;4992885;28;1342;-69
2022/12/18 08:27:40;;;;;;;;;;;-5.70;92.90;;;;;;4992327;28;1097;-69
2022/12/18 08:30:08;;;;;;;;;;;-5.60;92.90;;;;;;4991976;28;1631;-71
2022/12/18 08:32:36;;;;;;;;;;;-5.70;92.90;;;;;;4992286;28;1573;-70
2022/12/18 08:35:04;;;;;;;;;;;-5.60;93.20;;;;;;4992409;28;1323;-69
2022/12/18 08:37:33;;;;;;;;;;;-5.60;92.80;;;;;;4992671;28;1164;-69
2022/12/18 08:40:01;;;;;;;;;;;-5.50;92.80;;;;;;4992358;28;1085;-69
2022/12/18 08:45:13;;;;;;;;;;;-5.50;92.60;;;;;;4964147;28;1453;-69
2022/12/18 08:47:41;;;;;;;;;;;-5.40;92.40;;;;;;4995042;28;1114;-69
2022/12/18 08:50:11;;;;;;;;;;;-5.40;92.60;;;;;;4996032;28;1169;-69
2022/12/18 08:52:40;;;;;;;;;;;-5.30;92.60;;;;;;4996484;28;1050;-69
2022/12/18 08:55:08;;;;;;;;;;;-5.40;92.50;;;;;;4995307;28;1453;-69
2022/12/18 08:57:36;;;;;;;;;;;-5.20;92.50;;;;;;4995466;28;1527;-67
2022/12/18 09:00:04;;;;;;;;;;;-5.20;92.40;;;;;;4996728;28;1097;-71
2022/12/18 09:02:31;;;;;;;;;;;-5.20;92.40;;;;;;4996249;28;1910;-70
2022/12/18 09:04:59;;;;;;;;;;;-5.20;92.30;;;;;;4996236;28;1501;-70
2022/12/18 09:07:27;;;;;;;;;;;-5.20;92.40;;;;;;4996357;28;1419;-70
2022/12/18 09:09:56;;;;;;;;;;;-5.00;92.30;;;;;;4996575;28;1484;-71
2022/12/18 09:12:23;;;;;;;;;;;-4.90;92.20;;;;;;4995871;28;1149;-69
2022/12/18 09:14:51;;;;;;;;;;;-5.00;92.20;;;;;;4995551;28;1413;-70
2022/12/18 09:17:19;;;;;;;;;;;-4.90;92.00;;;;;;4995381;28;1132;-69
2022/12/18 09:19:46;;;;;;;;;;;-4.90;91.80;;;;;;4994994;28;1341;-69
2022/12/18 09:22:14;;;;;;;;;;;-4.80;91.90;;;;;;4995296;28;1985;-69
2022/12/18 09:24:41;;;;;;;;;;;-4.90;91.80;;;;;;4994922;28;1307;-69
2022/12/18 09:27:10;;;;;;;;;;;-4.80;91.40;;;;;;4997165;28;1480;-70
2022/12/18 09:29:38;;;;;;;;;;;-4.80;91.60;;;;;;4996731;28;1952;-70
2022/12/18 09:32:05;;;;;;;;;;;-4.70;91.50;;;;;;4998027;28;1515;-69
2022/12/18 09:34:33;;;;;;;;;;;-4.70;91.20;;;;;;4995706;28;1224;-70
2022/12/18 09:37:01;;;;;;;;;;;-4.60;91.10;;;;;;4994765;28;1627;-69
2022/12/18 09:39:28;;;;;;;;;;;-4.50;91.00;;;;;;4994944;28;1192;-69
2022/12/18 09:41:59;;;;;;;;;;;-4.50;90.90;;;;;;4995914;28;1906;-72
2022/12/18 09:44:30;;;;;;;;;;;-4.30;90.80;;;;;;4996474;28;1318;-70
2022/12/18 09:47:09;;;;;;;;;;;-4.40;90.60;;;;;;4993512;28;1404;-70
2022/12/18 09:49:39;;;;;;;;;;;-4.20;90.60;;;;;;4995013;28;1085;-69
2022/12/18 09:52:10;;;;;;;;;;;-4.20;90.70;;;;;;4995129;28;1109;-68
2022/12/18 09:54:40;;;;;;;;;;;-4.10;90.60;;;;;;4995024;28;1325;-69
2022/12/18 09:57:12;;;;;;;;;;;-4.10;90.70;;;;;;4994424;28;1097;-69
2022/12/18 09:59:42;;;;;;;;;;;-4.00;90.50;;;;;;4995554;28;1044;-70
2022/12/18 10:02:17;;;;;;;;;;;-4.00;90.30;;;;;;4995070;28;1915;-69
2022/12/18 10:04:47;;;;;;;;;;;-3.90;90.30;;;;;;4994149;28;1677;-69
2022/12/18 10:07:17;;;;;;;;;;;-3.80;90.00;;;;;;4994824;28;1014;-68
2022/12/18 10:09:51;;;;;;;;;;;-3.80;90.00;;;;;;4994803;28;1148;-68
2022/12/18 10:12:22;;;;;;;;;;;-3.70;89.90;;;;;;4995009;28;1174;-70
2022/12/18 10:14:52;;;;;;;;;;;-3.70;90.10;;;;;;4994795;28;2051;-69
2022/12/18 10:17:26;;;;;;;;;;;-3.70;90.10;;;;;;4993324;28;1685;-69
2022/12/18 10:19:56;;;;;;;;;;;-3.60;89.00;;;;;;4994897;28;1149;-68
2022/12/18 10:22:31;;;;;;;;;;;-3.50;89.20;;;;;;4994434;28;1976;-69
2022/12/18 10:25:02;;;;;;;;;;;-3.40;88.90;;;;;;4994589;28;1437;-69
2022/12/18 10:27:31;;;;;;;;;;;-3.30;89.60;;;;;;4992592;28;1248;-69
2022/12/18 10:30:01;;;;;;;;;;;-3.30;88.70;;;;;;4993645;28;1678;-69
2022/12/18 10:32:30;;;;;;;;;;;-3.20;88.60;;;;;;4994455;28;1010;-69
2022/12/18 10:34:58;;;;;;;;;;;-3.30;88.70;;;;;;4994016;28;1284;-69
2022/12/18 10:37:28;;;;;;;;;;;-3.30;88.20;;;;;;4993738;28;1090;-70
2022/12/18 10:40:07;;;;;;;;;;;-3.00;87.90;;;;;;4994511;28;987;-67
2022/12/18 10:42:35;;;;;;;;;;;-3.10;88.30;;;;;;4994775;28;1906;-68
2022/12/18 10:45:04;;;;;;;;;;;-3.10;87.90;;;;;;4994118;28;1345;-69
2022/12/18 10:47:34;;;;;;;;;;;-3.10;88.30;;;;;;4994083;28;1109;-69
2022/12/18 10:50:01;;;;;;;;;;;-3.00;88.70;;;;;;4992923;28;1607;-68
2022/12/18 10:52:29;;;;;;;;;;;-3.00;88.20;;;;;;4994027;28;1105;-69
2022/12/18 10:55:00;;;;;;;;;;;-2.90;88.30;;;;;;4993449;28;1646;-67
2022/12/18 10:57:32;;;;;;;;;;;-2.80;88.20;;;;;;4991590;28;1546;-68
2022/12/18 11:00:01;;;;;;;;;;;-2.70;88.00;;;;;;4992871;28;1541;-68
2022/12/18 11:02:34;;;;;;;;;;;-2.50;87.90;;;;;;4993833;28;1981;-69
2022/12/18 11:05:05;;;;;;;;;;;-2.30;87.70;;;;;;4993588;28;1360;-69
2022/12/18 11:07:48;;;;;;;;;;;-2.50;86.60;;;;;;4996124;28;1128;-69
2022/12/18 11:10:17;;;;;;;;;;;-2.40;86.50;;;;;;4994042;28;1686;-68
2022/12/18 11:12:45;;;;;;;;;;;-2.50;86.20;;;;;;4994544;28;1387;-69
2022/12/18 11:15:15;;;;;;;;;;;-2.40;86.00;;;;;;4994386;28;1288;-69
2022/12/18 11:17:47;;;;;;;;;;;-2.40;86.10;;;;;;4995369;28;1681;-69
2022/12/18 11:20:22;;;;;;;;;;;-2.30;86.10;;;;;;4995988;28;2000;-69
2022/12/18 11:22:56;;;;;;;;;;;-2.20;85.50;;;;;;4994700;28;1910;-68
2022/12/18 11:25:24;;;;;;;;;;;-2.20;85.50;;;;;;4993870;28;1458;-68
2022/12/18 11:28:04;;;;;;;;;;;-2.20;85.60;;;;;;4993992;28;1705;-70
2022/12/18 11:30:32;;;;;;;;;;;-2.20;85.60;;;;;;4995396;28;1708;-69
2022/12/18 11:33:03;;;;;;;;;;;-1.90;85.70;;;;;;4993659;28;1308;-71
2022/12/18 11:35:35;;;;;;;;;;;-2.10;85.00;;;;;;4992889;28;1031;-72
2022/12/18 11:38:05;;;;;;;;;;;-2.10;85.20;;;;;;4992566;28;1491;-71
2022/12/18 11:40:35;;;;;;;;;;;-2.10;85.10;;;;;;4993319;28;1037;-71
2022/12/18 11:43:11;;;;;;;;;;;-2.00;85.20;;;;;;4993721;28;1907;-70
2022/12/18 11:45:42;;;;;;;;;;;-2.00;84.90;;;;;;4992936;28;1064;-71
2022/12/18 11:48:15;;;;;;;;;;;-1.80;84.50;;;;;;4991970;28;1164;-72
2022/12/18 11:50:47;;;;;;;;;;;-1.80;84.50;;;;;;4993071;28;2264;-70
2022/12/18 11:53:14;;;;;;;;;;;-1.60;83.90;;;;;;4993089;28;1442;-71
2022/12/18 11:55:44;;;;;;;;;;;-1.60;83.40;;;;;;4993135;28;1128;-71
2022/12/18 11:58:18;;;;;;;;;;;-1.70;83.60;;;;;;4992943;28;1075;-72
2022/12/18 12:00:48;;;;;;;;;;;-1.80;83.80;;;;;;4993743;28;1045;-71
2022/12/18 12:03:26;;;;;;;;;;;-1.70;83.90;;;;;;4993174;28;1900;-72
2022/12/18 12:06:02;;;;;;;;;;;-1.80;84.10;;;;;;4992901;28;1426;-72
2022/12/18 12:08:36;;;;;;;;;;;-1.90;84.20;;;;;;4993110;28;1282;-73
2022/12/18 12:11:08;;;;;;;;;;;-1.80;83.80;;;;;;4992273;28;1732;-73
2022/12/18 12:13:42;;;;;;;;;;;-1.70;83.70;;;;;;4992160;28;1702;-68
2022/12/18 12:16:17;;;;;;;;;;;-1.70;83.70;;;;;;4992382;28;1701;-71
2022/12/18 12:18:57;;;;;;;;;;;-1.60;83.80;;;;;;4992584;28;1606;-71
2022/12/18 12:21:28;;;;;;;;;;;-1.60;84.00;;;;;;4996664;28;1662;-70
2022/12/18 12:24:01;;;;;;;;;;;-1.60;83.70;;;;;;4996260;28;1910;-71
2022/12/18 12:26:34;;;;;;;;;;;-1.60;84.00;;;;;;4997070;28;1053;-71
2022/12/18 12:29:05;;;;;;;;;;;-1.60;84.00;;;;;;4995926;28;1716;-71
2022/12/18 12:31:52;;;;;;;;;;;-1.60;84.70;;;;;;4996801;28;1070;-70
2022/12/18 12:34:23;;;;;;;;;;;-1.60;83.70;;;;;;4995457;28;1305;-70
2022/12/18 12:36:57;;;;;;;;;;;-1.50;82.70;;;;;;4996733;28;1364;-70
2022/12/18 12:39:28;;;;;;;;;;;-1.40;82.90;;;;;;4997340;28;1912;-70
2022/12/18 12:44:43;;;;;;;;;;;-1.30;82.10;;;;;;4996488;28;1997;-72
2022/12/18 12:47:15;;;;;;;;;;;-1.30;82.10;;;;;;4996160;28;1737;-71
2022/12/18 12:49:48;;;;;;;;;;;-1.30;81.80;;;;;;4995470;28;1112;-71
2022/12/18 12:52:21;;;;;;;;;;;-1.10;81.80;;;;;;4995888;28;1599;-71
2022/12/18 12:54:50;;;;;;;;;;;-0.80;81.90;;;;;;4996050;28;1663;-71
2022/12/18 12:57:21;;;;;;;;;;;-1.00;81.50;;;;;;4995985;28;982;-72
2022/12/18 12:59:51;;;;;;;;;;;-1.00;81.40;;;;;;4996283;28;1328;-71
2022/12/18 13:02:21;;;;;;;;;;;-1.00;81.10;;;;;;4996060;28;1793;-70
2022/12/18 13:04:54;;;;;;;;;;;-1.00;80.80;;;;;;4995510;28;1976;-72
2022/12/18 13:07:27;;;;;;;;;;;-0.90;80.80;;;;;;4994949;28;1019;-71
2022/12/18 13:10:14;;;;;;;;;;;-0.90;80.70;;;;;;4995431;28;1502;-72
2022/12/18 13:12:57;;;;;;;;;;;-0.90;80.40;;;;;;4996414;28;1315;-72
2022/12/18 13:15:26;;;;;;;;;;;-0.90;81.10;;;;;;4994183;28;1761;-72
2022/12/18 13:18:05;;;;;;;;;;;-1.00;80.70;;;;;;4993749;28;1646;-71
2022/12/18 13:20:36;;;;;;;;;;;-0.90;81.00;;;;;;4994991;28;1128;-71
2022/12/18 13:23:19;;;;;;;;;;;-0.80;80.50;;;;;;4996077;28;1720;-72
2022/12/18 13:25:48;;;;;;;;;;;-0.80;80.50;;;;;;4996366;28;1914;-71
2022/12/18 13:28:16;;;;;;;;;;;-0.80;80.30;;;;;;4998989;28;1080;-70
2022/12/18 13:30:51;;;;;;;;;;;-0.90;80.80;;;;;;4996000;28;1070;-72
2022/12/18 13:33:39;;;;;;;;;;;-0.90;80.70;;;;;;4992592;28;1573;-70
2022/12/18 13:36:32;;;;;;;;;;;-1.00;80.80;;;;;;4994172;28;2023;-71
2022/12/18 13:39:10;;;;;;;;;;;-1.10;80.90;;;;;;4994925;28;1028;-72
2022/12/18 13:41:38;;;;;;;;;;;-1.00;80.90;;;;;;4993888;28;1164;-71
2022/12/18 13:44:14;;;;;;;;;;;-1.10;80.90;;;;;;4992689;28;1914;-71
2022/12/18 13:46:45;;;;;;;;;;;-1.30;80.70;;;;;;4994049;28;1783;-71
2022/12/18 13:49:20;;;;;;;;;;;-1.40;81.00;;;;;;4994572;28;1028;-71
2022/12/18 13:51:51;;;;;;;;;;;-1.40;81.40;;;;;;4994390;28;1148;-71
2022/12/18 13:54:20;;;;;;;;;;;-1.60;81.10;;;;;;4993992;28;1351;-71
2022/12/18 13:56:49;;;;;;;;;;;-1.60;81.30;;;;;;4993722;28;1710;-72
2022/12/18 13:59:18;;;;;;;;;;;-1.70;81.70;;;;;;4995712;28;1035;-72
2022/12/18 14:01:53;;;;;;;;;;;-1.60;81.70;;;;;;4994295;28;1771;-72
2022/12/18 14:04:26;;;;;;;;;;;-1.70;81.70;;;;;;4994569;28;1997;-71
2022/12/18 14:06:56;;;;;;;;;;;-1.70;82.00;;;;;;4993466;28;1581;-72
2022/12/18 14:09:26;;;;;;;;;;;-1.70;82.20;;;;;;4994744;28;1006;-72
2022/12/18 14:12:56;;;;;;;;;;;-1.80;82.30;;;;;;4994715;28;2503;-72
2022/12/18 14:14:44;;;;;;;;;;;-1.70;82.60;;;;;;4994502;28;1350;-71
2022/12/18 14:17:13;;;;;;;;;;;-1.70;82.50;;;;;;4993604;28;903;-71
2022/12/18 14:19:43;;;;;;;;;;;-1.80;82.90;;;;;;4993995;28;1508;-72
2022/12/18 14:22:15;;;;;;;;;;;-1.70;82.70;;;;;;4994213;28;1085;-72
2022/12/18 14:24:43;;;;;;;;;;;-1.90;82.80;;;;;;4994023;28;1998;-71
2022/12/18 14:27:21;;;;;;;;;;;-1.90;83.20;;;;;;4994039;28;1059;-71
2022/12/18 14:29:49;;;;;;;;;;;-1.90;83.40;;;;;;4992342;28;1496;-72
2022/12/18 14:32:18;;;;;;;;;;;-1.90;83.50;;;;;;4993888;28;1085;-72
2022/12/18 14:34:46;;;;;;;;;;;-2.00;83.70;;;;;;4994023;28;1307;-73
2022/12/18 14:37:16;;;;;;;;;;;-2.00;83.60;;;;;;4994381;28;1049;-70
2022/12/18 14:39:54;;;;;;;;;;;-2.10;84.00;;;;;;4994256;28;1088;-73
2022/12/18 14:42:22;;;;;;;;;;;-2.20;84.40;;;;;;4993027;28;1076;-72
2022/12/18 14:44:49;;;;;;;;;;;-2.20;84.40;;;;;;4994143;28;2012;-72
2022/12/18 14:47:37;;;;;;;;;;;-2.10;84.10;;;;;;4993318;28;1582;-68
2022/12/18 14:50:12;;;;;;;;;;;-2.20;84.50;;;;;;4993889;28;1045;-73
2022/12/18 14:52:41;;;;;;;;;;;-2.30;85.00;;;;;;4993325;28;1097;-73
2022/12/18 14:55:15;;;;;;;;;;;-2.20;85.40;;;;;;4993715;28;1197;-73
2022/12/18 14:57:44;;;;;;;;;;;-2.30;85.10;;;;;;4993146;28;1575;-73
2022/12/18 15:00:16;;;;;;;;;;;-2.30;85.30;;;;;;4994253;28;982;-74
2022/12/18 15:02:44;;;;;;;;;;;-2.30;85.50;;;;;;4993021;28;1040;-74
2022/12/18 15:05:17;;;;;;;;;;;-2.30;85.50;;;;;;4993077;28;1906;-72
2022/12/18 15:07:47;;;;;;;;;;;-2.40;86.10;;;;;;4991934;28;1341;-72
2022/12/18 15:10:16;;;;;;;;;;;-2.50;86.10;;;;;;4992682;28;1156;-71
2022/12/18 15:12:44;;;;;;;;;;;-2.40;86.30;;;;;;4991941;28;1085;-71